createdAt,value
2018-10-07T00:01:41.727Z,12.97
2018-10-07T00:04:10.734Z,14.57
2018-10-07T00:06:39.844Z,13.73
2018-10-07T00:09:09.449Z,13.60
2018-10-07T00:11:38.535Z,13.60
2018-10-07T00:14:07.541Z,13.03
2018-10-07T00:16:36.644Z,13.33
2018-10-07T00:19:05.690Z,13.70
2018-10-07T00:21:34.730Z,13.43
2018-10-07T00:24:04.020Z,14.03
2018-10-07T00:26:33.059Z,13.37
2018-10-07T00:29:02.167Z,14.03
2018-10-07T00:31:31.334Z,13.83
2018-10-07T00:34:00.505Z,14.07
2018-10-07T00:36:29.570Z,13.30
2018-10-07T00:38:59.468Z,14.33
2018-10-07T00:41:28.792Z,13.77
2018-10-07T00:43:58.081Z,14.03
2018-10-07T00:46:28.402Z,13.40
2018-10-07T00:48:57.371Z,14.10
2018-10-07T00:51:26.418Z,14.97
2018-10-07T00:53:55.941Z,14.57
2018-10-07T00:56:26.201Z,15.17
2018-10-07T00:58:55.191Z,14.17
2018-10-07T01:01:24.243Z,13.27
2018-10-07T01:03:53.476Z,13.90
2018-10-07T01:06:22.654Z,14.20
2018-10-07T01:08:51.658Z,13.93
2018-10-07T01:11:20.741Z,14.53
2018-10-07T01:13:49.950Z,14.43
2018-10-07T01:16:19.036Z,15.33
2018-10-07T01:18:48.065Z,14.73
2018-10-07T01:21:17.117Z,15.53
2018-10-07T01:23:46.118Z,14.00
2018-10-07T01:26:15.093Z,14.67
2018-10-07T01:28:44.322Z,15.17
2018-10-07T01:31:13.367Z,14.73
2018-10-07T01:33:42.410Z,15.90
2018-10-07T01:36:11.522Z,16.43
2018-10-07T01:38:40.561Z,14.93
2018-10-07T01:41:09.565Z,15.10
2018-10-07T01:43:38.625Z,14.90
2018-10-07T01:46:07.708Z,16.33
2018-10-07T01:48:36.695Z,14.67
2018-10-07T01:51:05.940Z,15.73
2018-10-07T01:53:35.013Z,17.40
2018-10-07T01:56:04.332Z,15.67
2018-10-07T01:58:33.408Z,15.97
2018-10-07T02:01:02.482Z,15.63
2018-10-07T02:03:31.658Z,16.60
2018-10-07T02:06:01.068Z,15.80
2018-10-07T02:08:30.126Z,16.77
2018-10-07T02:10:59.209Z,16.07
2018-10-07T02:13:28.193Z,15.03
2018-10-07T02:15:57.199Z,15.70
2018-10-07T02:18:26.191Z,16.87
2018-10-07T02:20:55.435Z,17.83
2018-10-07T02:23:24.442Z,16.77
2018-10-07T02:25:53.434Z,16.30
2018-10-07T02:28:22.497Z,17.23
2018-10-07T02:30:51.519Z,15.40
2018-10-07T02:33:20.563Z,16.70
2018-10-07T02:35:49.611Z,17.27
2018-10-07T02:38:18.648Z,16.57
2018-10-07T02:40:47.636Z,16.47
2018-10-07T02:43:16.756Z,16.23
2018-10-07T02:45:45.793Z,15.47
2018-10-07T02:48:14.827Z,16.50
2018-10-07T02:50:43.929Z,15.90
2018-10-07T02:53:12.958Z,16.03
2018-10-07T02:55:41.909Z,16.33
2018-10-07T02:58:11.026Z,17.73
2018-10-07T03:00:40.082Z,16.67
2018-10-07T03:03:09.173Z,16.00
2018-10-07T03:05:38.214Z,16.83
2018-10-07T03:08:07.277Z,17.10
2018-10-07T03:10:36.246Z,17.20
2018-10-07T03:13:05.264Z,16.20
2018-10-07T03:15:34.377Z,15.53
2018-10-07T03:18:03.451Z,15.43
2018-10-07T03:20:32.513Z,16.33
2018-10-07T03:23:01.495Z,17.00
2018-10-07T03:25:30.478Z,16.67
2018-10-07T03:27:59.462Z,17.13
2018-10-07T03:30:28.516Z,15.23
2018-10-07T03:32:57.627Z,15.83
2018-10-07T03:35:26.667Z,17.67
2018-10-07T03:37:55.717Z,17.40
2018-10-07T03:40:24.757Z,16.70
2018-10-07T03:42:53.814Z,15.07
2018-10-07T03:45:23.179Z,16.33
2018-10-07T03:47:52.229Z,16.63
2018-10-07T03:50:21.252Z,15.77
2018-10-07T03:52:50.295Z,14.53
2018-10-07T03:55:19.397Z,15.40
2018-10-07T03:57:48.640Z,15.70
2018-10-07T04:00:17.711Z,15.07
2018-10-07T04:02:46.751Z,16.20
2018-10-07T04:05:15.805Z,16.37
2018-10-07T04:07:44.854Z,18.23
2018-10-07T04:10:13.873Z,17.07
2018-10-07T04:12:42.925Z,15.87
2018-10-07T04:15:12.039Z,16.67
2018-10-07T04:17:41.048Z,16.77
2018-10-07T04:20:10.074Z,15.67
2018-10-07T04:22:39.112Z,16.60
2018-10-07T04:25:08.177Z,15.97
2018-10-07T04:27:37.198Z,15.57
2018-10-07T04:30:06.314Z,17.43
2018-10-07T04:32:35.282Z,16.57
2018-10-07T04:35:04.370Z,17.30
2018-10-07T04:37:33.418Z,17.30
2018-10-07T04:40:02.545Z,17.87
2018-10-07T04:42:31.572Z,17.67
2018-10-07T04:45:00.614Z,17.83
2018-10-07T04:47:29.693Z,19.17
2018-10-07T04:49:58.690Z,19.77
2018-10-07T04:52:27.714Z,17.33
2018-10-07T04:54:56.770Z,17.70
2018-10-07T04:57:25.757Z,17.23
2018-10-07T04:59:54.811Z,17.73
2018-10-07T05:02:23.851Z,18.77
2018-10-07T05:04:52.918Z,17.23
2018-10-07T05:07:22.327Z,18.23
2018-10-07T05:10:01.277Z,19.73
2018-10-07T05:12:30.388Z,19.37
2018-10-07T05:14:59.515Z,18.90
2018-10-07T05:17:28.878Z,19.83
2018-10-07T05:19:57.886Z,19.90
2018-10-07T05:22:26.899Z,20.40
2018-10-07T05:24:56.062Z,18.07
2018-10-07T05:27:25.103Z,19.13
2018-10-07T05:29:54.169Z,19.30
2018-10-07T05:32:23.378Z,19.10
2018-10-07T05:34:52.400Z,19.23
2018-10-07T05:37:21.480Z,19.47
2018-10-07T05:39:50.830Z,19.40
2018-10-07T05:42:19.881Z,19.50
2018-10-07T05:44:49.056Z,17.67
2018-10-07T05:47:18.024Z,17.43
2018-10-07T05:49:47.045Z,18.30
2018-10-07T05:52:16.085Z,19.47
2018-10-07T05:54:45.075Z,18.90
2018-10-07T05:57:14.249Z,18.30
2018-10-07T05:59:43.280Z,18.17
2018-10-07T06:02:12.462Z,17.40
2018-10-07T06:04:43.328Z,18.00
2018-10-07T06:07:12.326Z,18.57
2018-10-07T06:09:41.435Z,17.70
2018-10-07T06:12:10.564Z,17.77
2018-10-07T06:14:50.911Z,19.27
2018-10-07T06:17:19.955Z,18.23
2018-10-07T06:19:49.072Z,18.03
2018-10-07T06:22:18.283Z,18.20
2018-10-07T06:24:47.436Z,20.20
2018-10-07T06:27:18.070Z,19.50
2018-10-07T06:29:47.277Z,18.17
2018-10-07T06:32:16.301Z,18.63
2018-10-07T06:34:45.307Z,19.80
2018-10-07T06:37:14.389Z,20.40
2018-10-07T06:39:43.504Z,20.60
2018-10-07T06:42:12.524Z,18.97
2018-10-07T06:44:41.570Z,20.40
2018-10-07T06:47:10.665Z,21.27
2018-10-07T06:49:39.777Z,21.90
2018-10-07T06:52:08.858Z,18.10
2018-10-07T06:54:37.903Z,18.83
2018-10-07T06:57:06.959Z,17.33
2018-10-07T06:59:36.105Z,18.73
2018-10-07T07:02:05.194Z,20.53
2018-10-07T07:04:34.231Z,20.20
2018-10-07T07:07:03.246Z,18.40
2018-10-07T07:09:32.336Z,20.43
2018-10-07T07:12:01.359Z,18.60
2018-10-07T07:14:30.371Z,19.30
2018-10-07T07:16:59.454Z,19.93
2018-10-07T07:19:28.556Z,18.23
2018-10-07T07:21:57.553Z,18.37
2018-10-07T07:24:26.582Z,17.77
2018-10-07T07:26:55.630Z,17.03
2018-10-07T07:29:24.666Z,17.70
2018-10-07T07:31:53.868Z,18.33
2018-10-07T07:34:22.970Z,18.90
2018-10-07T07:36:51.955Z,16.30
2018-10-07T07:39:21.094Z,16.83
2018-10-07T07:41:50.106Z,15.97
2018-10-07T07:44:19.142Z,16.53
2018-10-07T07:46:48.126Z,16.50
2018-10-07T07:49:17.221Z,16.07
2018-10-07T07:51:46.271Z,18.67
2018-10-07T07:54:15.318Z,16.80
2018-10-07T07:56:44.375Z,17.20
2018-10-07T07:59:13.414Z,15.77
2018-10-07T08:01:42.459Z,17.17
2018-10-07T08:04:11.444Z,15.43
2018-10-07T08:06:40.449Z,15.43
2018-10-07T08:09:10.393Z,17.10
2018-10-07T08:11:39.438Z,15.83
2018-10-07T08:14:08.521Z,16.13
2018-10-07T08:16:37.936Z,14.90
2018-10-07T08:19:07.627Z,16.20
2018-10-07T08:21:36.658Z,15.77
2018-10-07T08:24:05.802Z,13.40
2018-10-07T08:26:34.826Z,15.37
2018-10-07T08:29:03.919Z,15.30
2018-10-07T08:31:32.959Z,14.93
2018-10-07T08:34:02.018Z,15.37
2018-10-07T08:36:31.062Z,14.97
2018-10-07T08:39:00.044Z,15.40
2018-10-07T08:41:29.060Z,15.60
2018-10-07T08:43:58.087Z,14.40
2018-10-07T08:46:27.188Z,15.83
2018-10-07T08:48:56.267Z,15.27
2018-10-07T08:51:25.295Z,14.50
2018-10-07T08:53:54.290Z,14.80
2018-10-07T08:56:23.386Z,13.90
2018-10-07T08:58:52.340Z,13.90
2018-10-07T09:01:21.329Z,13.97
2018-10-07T09:03:50.410Z,13.57
2018-10-07T09:06:19.567Z,13.57
2018-10-07T09:08:48.668Z,13.70
2018-10-07T09:13:52.225Z,13.90
2018-10-07T09:16:21.223Z,13.53
2018-10-07T09:18:50.364Z,13.63
2018-10-07T09:21:19.384Z,12.33
2018-10-07T09:23:48.447Z,14.37
2018-10-07T09:26:17.619Z,15.03
2018-10-07T09:28:46.667Z,14.33
2018-10-07T09:31:15.707Z,13.90
2018-10-07T09:33:44.881Z,13.90
2018-10-07T09:36:13.983Z,13.43
2018-10-07T09:38:43.099Z,12.57
2018-10-07T09:41:12.298Z,12.23
2018-10-07T09:43:41.361Z,12.63
2018-10-07T09:46:10.407Z,12.43
2018-10-07T09:48:39.662Z,12.00
2018-10-07T09:51:08.630Z,12.97
2018-10-07T09:53:37.642Z,11.37
2018-10-07T09:56:06.775Z,12.13
2018-10-07T09:58:35.874Z,10.40
2018-10-07T10:01:04.961Z,10.37
2018-10-07T10:03:34.079Z,9.47
2018-10-07T10:06:03.119Z,9.73
2018-10-07T10:08:32.106Z,9.17
2018-10-07T10:11:01.231Z,8.87
2018-10-07T10:13:30.113Z,7.97
2018-10-07T10:15:59.135Z,7.20
2018-10-07T10:18:33.669Z,7.90
2018-10-07T10:21:07.629Z,8.27
2018-10-07T10:23:46.338Z,7.53
2018-10-07T10:26:18.404Z,7.47
2018-10-07T10:29:23.910Z,10.10
2018-10-07T10:32:30.042Z,7.90
2018-10-07T10:35:09.606Z,7.57
2018-10-07T10:37:44.194Z,9.47
2018-10-07T10:40:29.030Z,7.30
2018-10-07T10:43:16.789Z,7.87
2018-10-07T10:46:19.482Z,6.30
2018-10-07T10:49:00.455Z,7.33
2018-10-07T10:51:38.691Z,9.00
2018-10-07T10:54:28.000Z,6.67
2018-10-07T10:57:18.678Z,8.33
2018-10-07T10:59:58.965Z,8.03
2018-10-07T11:02:32.866Z,6.93
2018-10-07T11:05:40.330Z,8.03
2018-10-07T11:08:20.680Z,7.73
2018-10-07T11:11:00.953Z,7.33
2018-10-07T11:13:40.025Z,7.23
2018-10-07T11:16:24.627Z,8.03
2018-10-07T11:19:07.811Z,6.93
2018-10-07T11:22:17.561Z,7.47
2018-10-07T11:24:57.286Z,7.67
2018-10-07T11:27:35.550Z,7.93
2018-10-07T11:30:13.961Z,7.20
2018-10-07T11:32:50.166Z,8.83
2018-10-07T11:37:31.481Z,8.07
2018-10-07T11:40:08.673Z,8.80
2018-10-07T11:42:45.615Z,10.07
2018-10-07T11:45:27.431Z,10.00
2018-10-07T11:48:09.672Z,12.53
2018-10-07T11:52:54.422Z,9.93
2018-10-07T11:55:23.407Z,10.37
2018-10-07T11:57:52.939Z,12.13
2018-10-07T12:00:21.955Z,9.90
2018-10-07T12:02:51.002Z,8.47
2018-10-07T12:05:20.030Z,10.87
2018-10-07T12:07:49.073Z,10.43
2018-10-07T12:10:18.134Z,12.00
2018-10-07T12:12:47.044Z,9.73
2018-10-07T12:15:16.124Z,13.30
2018-10-07T12:17:45.155Z,14.80
2018-10-07T12:20:14.287Z,12.40
2018-10-07T12:22:43.227Z,14.23
2018-10-07T12:25:12.214Z,16.10
2018-10-07T12:27:42.341Z,14.63
2018-10-07T12:30:11.371Z,16.37
2018-10-07T12:32:40.393Z,14.93
2018-10-07T12:35:09.410Z,16.17
2018-10-07T12:37:38.383Z,20.93
2018-10-07T12:40:07.457Z,20.97
2018-10-07T12:42:36.516Z,18.53
2018-10-07T12:45:05.582Z,20.73
2018-10-07T12:47:34.548Z,24.17
2018-10-07T12:50:03.553Z,23.63
2018-10-07T12:52:32.565Z,24.10
2018-10-07T12:55:01.540Z,25.10
2018-10-07T12:57:30.726Z,28.03
2018-10-07T12:59:59.668Z,27.93
2018-10-07T13:02:28.694Z,26.77
2018-10-07T13:04:57.681Z,27.40
2018-10-07T13:07:26.659Z,27.40
2018-10-07T13:09:55.690Z,28.40
2018-10-07T13:12:24.815Z,27.87
2018-10-07T13:14:53.828Z,31.13
2018-10-07T13:17:22.917Z,29.07
2018-10-07T13:19:52.102Z,33.87
2018-10-07T13:22:21.115Z,34.20
2018-10-07T13:24:50.211Z,37.73
2018-10-07T13:27:19.192Z,39.40
2018-10-07T13:29:48.282Z,37.57
2018-10-07T13:32:17.365Z,36.83
2018-10-07T13:34:46.350Z,35.07
2018-10-07T13:37:15.317Z,38.23
2018-10-07T13:39:44.404Z,39.27
2018-10-07T13:42:13.361Z,35.33
2018-10-07T13:44:42.442Z,37.80
2018-10-07T13:47:11.462Z,32.63
2018-10-07T13:49:40.637Z,38.87
2018-10-07T13:52:09.699Z,39.80
2018-10-07T13:54:38.782Z,41.40
2018-10-07T13:57:07.865Z,41.90
2018-10-07T13:59:36.939Z,39.50
2018-10-07T14:02:06.008Z,38.63
2018-10-07T14:04:35.012Z,42.47
2018-10-07T14:07:04.041Z,44.00
2018-10-07T14:09:33.223Z,44.53
2018-10-07T14:12:02.201Z,44.77
2018-10-07T14:14:31.205Z,44.13
2018-10-07T14:17:00.214Z,45.97
2018-10-07T14:19:29.227Z,44.57
2018-10-07T14:21:58.210Z,46.37
2018-10-07T14:24:27.269Z,45.70
2018-10-07T14:26:56.263Z,45.07
2018-10-07T14:29:25.293Z,43.53
2018-10-07T14:31:54.509Z,46.30
2018-10-07T14:34:23.512Z,43.60
2018-10-07T14:36:52.549Z,43.93
2018-10-07T14:39:21.624Z,42.77
2018-10-07T14:41:50.518Z,42.80
2018-10-07T14:44:19.561Z,38.80
2018-10-07T14:46:48.575Z,39.53
2018-10-07T14:49:17.697Z,36.63
2018-10-07T14:51:46.653Z,37.00
2018-10-07T14:54:15.645Z,34.57
2018-10-07T14:56:44.659Z,37.23
2018-10-07T14:59:13.766Z,38.43
2018-10-07T15:01:42.822Z,37.37
2018-10-07T15:04:11.840Z,38.90
2018-10-07T15:06:40.827Z,40.97
2018-10-07T15:09:10.996Z,39.53
2018-10-07T15:11:39.995Z,46.77
2018-10-07T15:14:09.453Z,47.50
2018-10-07T15:16:38.498Z,46.87
2018-10-07T15:19:07.598Z,40.70
2018-10-07T15:21:36.586Z,42.57
2018-10-07T15:24:05.622Z,41.20
2018-10-07T15:26:34.705Z,45.13
2018-10-07T15:29:03.731Z,42.90
2018-10-07T15:31:32.758Z,38.53
2018-10-07T15:34:01.883Z,44.33
2018-10-07T15:36:30.904Z,45.73
2018-10-07T15:38:59.925Z,42.67
2018-10-07T15:41:28.995Z,41.57
2018-10-07T15:44:04.711Z,42.80
2018-10-07T15:46:33.718Z,41.13
2018-10-07T15:49:02.709Z,41.10
2018-10-07T15:51:31.827Z,36.13
2018-10-07T15:54:00.799Z,37.80
2018-10-07T15:56:29.786Z,33.60
2018-10-07T15:58:58.800Z,35.87
2018-10-07T16:01:27.790Z,36.77
2018-10-07T16:03:56.820Z,38.73
2018-10-07T16:06:25.827Z,38.77
2018-10-07T16:08:54.889Z,38.43
2018-10-07T16:11:23.899Z,35.13
2018-10-07T16:13:52.939Z,35.17
2018-10-07T16:16:22.001Z,35.00
2018-10-07T16:18:51.036Z,35.47
2018-10-07T16:21:20.028Z,36.63
2018-10-07T16:23:49.060Z,36.70
2018-10-07T16:26:18.169Z,34.93
2018-10-07T16:28:47.045Z,37.50
2018-10-07T16:31:16.021Z,34.93
2018-10-07T16:33:44.991Z,32.87
2018-10-07T16:36:14.110Z,31.87
2018-10-07T16:38:43.098Z,31.40
2018-10-07T16:41:12.119Z,29.40
2018-10-07T16:43:41.206Z,32.37
2018-10-07T16:46:10.366Z,31.90
2018-10-07T16:48:39.437Z,29.30
2018-10-07T16:51:09.461Z,31.87
2018-10-07T16:53:39.185Z,28.03
2018-10-07T16:56:08.283Z,30.30
2018-10-07T16:58:37.282Z,27.40
2018-10-07T17:01:06.344Z,28.53
2018-10-07T17:03:35.968Z,26.37
2018-10-07T17:06:05.249Z,27.33
2018-10-07T17:08:34.244Z,24.80
2018-10-07T17:11:03.299Z,25.47
2018-10-07T17:13:32.286Z,23.20
2018-10-07T17:16:01.310Z,24.50
2018-10-07T17:18:30.575Z,25.60
2018-10-07T17:20:59.627Z,23.13
2018-10-07T17:23:28.561Z,24.40
2018-10-07T17:25:57.563Z,22.27
2018-10-07T17:28:26.614Z,22.53
2018-10-07T17:30:55.667Z,23.00
2018-10-07T17:33:24.677Z,21.33
2018-10-07T17:35:53.646Z,22.17
2018-10-07T17:38:22.688Z,19.97
2018-10-07T17:40:51.705Z,22.17
2018-10-07T17:43:20.734Z,20.27
2018-10-07T17:45:49.686Z,20.70
2018-10-07T17:48:18.761Z,18.87
2018-10-07T17:50:47.836Z,20.00
2018-10-07T17:53:16.851Z,18.43
2018-10-07T17:55:45.858Z,17.43
2018-10-07T17:58:14.890Z,16.23
2018-10-07T18:00:43.903Z,19.17
2018-10-07T18:03:13.026Z,18.07
2018-10-07T18:05:41.935Z,21.70
2018-10-07T18:08:10.973Z,18.97
2018-10-07T18:10:40.008Z,19.27
2018-10-07T18:13:09.032Z,20.33
2018-10-07T18:15:38.011Z,17.63
2018-10-07T18:18:07.073Z,21.90
2018-10-07T18:20:36.058Z,18.27
2018-10-07T18:23:05.079Z,19.17
2018-10-07T18:25:34.081Z,19.17
2018-10-07T18:28:03.040Z,19.67
2018-10-07T18:30:32.050Z,18.37
2018-10-07T18:33:01.060Z,21.73
2018-10-07T18:35:30.050Z,17.47
2018-10-07T18:37:59.035Z,17.50
2018-10-07T18:40:28.350Z,19.77
2018-10-07T18:42:57.350Z,18.33
2018-10-07T18:45:26.274Z,17.63
2018-10-07T18:47:55.339Z,18.23
2018-10-07T18:50:24.390Z,20.40
2018-10-07T18:52:53.377Z,17.60
2018-10-07T18:55:22.409Z,15.07
2018-10-07T18:57:51.412Z,16.33
2018-10-07T19:00:20.664Z,15.07
2018-10-07T19:02:49.834Z,15.30
2018-10-07T19:05:18.665Z,14.27
2018-10-07T19:07:47.632Z,15.33
2018-10-07T19:10:16.714Z,15.30
2018-10-07T19:12:45.746Z,14.30
2018-10-07T19:15:14.702Z,15.83
2018-10-07T19:17:43.952Z,13.33
2018-10-07T19:20:14.031Z,14.97
2018-10-07T19:22:43.026Z,15.37
2018-10-07T19:25:13.471Z,13.33
2018-10-07T19:27:42.458Z,11.90
2018-10-07T19:30:11.773Z,13.57
2018-10-07T19:32:41.450Z,13.07
2018-10-07T19:35:10.583Z,13.77
2018-10-07T19:37:40.131Z,13.47
2018-10-07T19:40:09.716Z,13.23
2018-10-07T19:42:38.927Z,12.97
2018-10-07T19:45:07.997Z,13.07
2018-10-07T19:47:37.021Z,12.10
2018-10-07T19:50:06.091Z,13.63
2018-10-07T19:52:35.192Z,12.37
2018-10-07T19:55:04.371Z,13.20
2018-10-07T19:57:33.394Z,11.43
2018-10-07T20:00:02.676Z,12.50
2018-10-07T20:02:31.949Z,11.00
2018-10-07T20:05:01.186Z,12.33
2018-10-07T20:07:30.226Z,11.53
2018-10-07T20:09:59.362Z,10.40
2018-10-07T20:12:28.802Z,11.40
2018-10-07T20:14:57.840Z,11.37
2018-10-07T20:17:27.821Z,10.50
2018-10-07T20:19:57.164Z,10.93
2018-10-07T20:22:26.332Z,11.30
2018-10-07T20:24:55.291Z,11.47
2018-10-07T20:27:25.075Z,11.03
2018-10-07T20:29:55.033Z,11.10
2018-10-07T20:32:24.623Z,22.67
2018-10-07T20:34:54.062Z,17.17
2018-10-07T20:37:23.654Z,27.83
2018-10-07T20:42:13.109Z,33.57
2018-10-07T20:44:42.174Z,31.60
2018-10-07T20:47:11.211Z,16.97
2018-10-07T20:49:40.261Z,13.70
2018-10-07T20:52:09.307Z,13.07
2018-10-07T20:54:38.514Z,12.43
2018-10-07T20:57:07.559Z,10.80
2018-10-07T20:59:36.747Z,12.83
2018-10-07T21:02:05.756Z,11.93
2018-10-07T21:04:34.771Z,11.83
2018-10-07T21:07:03.793Z,12.43
2018-10-07T21:09:32.829Z,11.90
2018-10-07T21:12:01.859Z,12.27
2018-10-07T21:14:30.853Z,11.97
2018-10-07T21:16:59.865Z,10.83
2018-10-07T21:19:28.888Z,11.60
2018-10-07T21:21:57.857Z,11.10
2018-10-07T21:24:26.860Z,12.20
2018-10-07T21:26:55.921Z,12.90
2018-10-07T21:29:24.953Z,12.10
2018-10-07T21:31:54.021Z,12.47
2018-10-07T21:34:23.037Z,11.97
2018-10-07T21:36:52.026Z,12.40
2018-10-07T21:39:21.033Z,12.20
2018-10-07T21:41:50.058Z,12.80
2018-10-07T21:44:19.149Z,13.27
2018-10-07T21:46:48.303Z,13.10
2018-10-07T21:49:17.412Z,10.90
2018-10-07T21:51:46.432Z,12.00
2018-10-07T21:54:15.436Z,11.53
2018-10-07T21:56:44.536Z,12.80
2018-10-07T21:59:13.596Z,13.03
2018-10-07T22:01:42.639Z,12.43
2018-10-07T22:04:11.642Z,12.37
2018-10-07T22:06:40.999Z,12.37
2018-10-07T22:09:10.074Z,13.23
2018-10-07T22:11:39.270Z,12.47
2018-10-07T22:14:08.761Z,11.97
2018-10-07T22:16:37.790Z,11.70
2018-10-07T22:19:06.782Z,12.60
2018-10-07T22:21:35.988Z,12.73
2018-10-07T22:24:05.563Z,11.90
2018-10-07T22:26:34.671Z,13.37
2018-10-07T22:29:03.681Z,13.30
2018-10-07T22:31:32.734Z,13.23
2018-10-07T22:34:01.885Z,14.37
2018-10-07T22:36:31.047Z,12.93
2018-10-07T22:39:00.234Z,15.00
2018-10-07T22:41:29.315Z,13.53
2018-10-07T22:43:58.370Z,14.27
2018-10-07T22:46:27.479Z,14.20
2018-10-07T22:48:56.603Z,14.33
2018-10-07T22:51:25.727Z,14.40
2018-10-07T22:53:54.741Z,13.97
2018-10-07T22:56:23.765Z,13.93
2018-10-07T22:58:52.782Z,15.83
2018-10-07T23:01:21.895Z,13.43
2018-10-07T23:03:50.894Z,15.50
2018-10-07T23:06:19.976Z,14.63
2018-10-07T23:08:49.028Z,15.63
2018-10-07T23:11:18.195Z,15.60
2018-10-07T23:13:47.236Z,16.40
2018-10-07T23:16:16.377Z,15.97
2018-10-07T23:18:45.429Z,16.23
2018-10-07T23:21:14.493Z,14.60
2018-10-07T23:23:43.541Z,14.43
2018-10-07T23:26:12.658Z,15.00
2018-10-07T23:28:41.655Z,14.93
2018-10-07T23:31:10.664Z,14.33
2018-10-07T23:33:39.754Z,14.30
2018-10-07T23:36:08.742Z,16.20
2018-10-07T23:38:37.750Z,16.10
2018-10-07T23:41:06.843Z,15.13
2018-10-07T23:43:35.831Z,14.70
2018-10-07T23:46:04.863Z,15.73
2018-10-07T23:48:33.951Z,14.73
2018-10-07T23:51:03.089Z,15.40
2018-10-07T23:53:32.145Z,14.43
2018-10-07T23:56:01.146Z,14.73
2018-10-07T23:58:30.258Z,14.93
